Time;durP1;ratioP1;P1;durP2;ratioP2;P2;SDS_P1;SDS_P2;PMS_P1;PMS_P2;Temp;Humidity;BMP_temperature;BMP_pressure;BME280_temperature;BME280_humidity;BME280_pressure;Samples;Min_cycle;Max_cycle;Signal;HPM_P1;HPM_P2
2023/09/26 00:01:02;;;;;;;2.33;2.13;;;11.40;1.00;;;;;;4993034;28;20394;-89
2023/09/26 00:03:27;;;;;;;3.35;2.70;;;11.30;1.00;;;;;;4992740;28;20387;-88
2023/09/26 00:05:55;;;;;;;3.57;2.60;;;11.40;1.00;;;;;;4991971;28;20470;-90
2023/09/26 00:08:20;;;;;;;2.75;2.50;;;13.20;1.00;;;;;;4987453;28;20425;-90
2023/09/26 00:10:46;;;;;;;3.72;2.60;;;11.60;1.00;;;;;;4993039;28;20894;-89
2023/09/26 00:13:13;;;;;;;3.10;2.30;;;11.50;1.00;;;;;;4993258;28;20403;-89
2023/09/26 00:15:39;;;;;;;3.78;2.72;;;11.50;1.00;;;;;;4993324;28;20826;-90
2023/09/26 00:18:08;;;;;;;2.80;2.60;;;11.20;1.00;;;;;;4992484;28;20413;-89
2023/09/26 00:20:39;;;;;;;3.30;2.70;;;11.70;1.00;;;;;;4989564;28;20778;-87
2023/09/26 00:23:05;;;;;;;3.10;2.80;;;10.80;1.00;;;;;;4973376;28;20399;-89
2023/09/26 00:25:31;;;;;;;3.40;3.00;;;11.50;1.00;;;;;;4990291;28;20407;-89
2023/09/26 00:27:56;;;;;;;2.70;2.50;;;11.40;1.00;;;;;;4992427;28;20378;-89
2023/09/26 00:30:26;;;;;;;3.13;2.83;;;11.20;1.00;;;;;;4992507;28;20391;-89
2023/09/26 00:32:52;;;;;;;4.25;3.00;;;11.10;1.00;;;;;;4991882;28;20399;-89
2023/09/26 00:35:18;;;;;;;3.20;2.90;;;10.80;1.00;;;;;;4993682;28;20419;-89
2023/09/26 00:37:49;;;;;;;2.80;2.60;;;11.40;1.00;;;;;;4992252;28;20449;-89
2023/09/26 00:40:16;;;;;;;3.20;2.90;;;11.30;1.00;;;;;;4993286;28;20401;-89
2023/09/26 00:42:45;;;;;;;4.05;3.40;;;11.30;1.00;;;;;;4993205;28;20395;-89
2023/09/26 00:45:11;;;;;;;2.70;2.50;;;12.20;1.00;;;;;;4992726;28;20394;-88
2023/09/26 00:47:41;;;;;;;3.03;2.72;;;11.40;1.00;;;;;;4992304;28;20429;-89
2023/09/26 00:50:08;;;;;;;3.20;2.47;;;11.60;1.00;;;;;;4992699;28;20533;-88
2023/09/26 00:52:41;;;;;;;3.33;2.90;;;11.70;1.00;;;;;;5013965;28;20402;-89
2023/09/26 00:55:07;;;;;;;3.20;2.80;;;11.40;1.00;;;;;;5015466;28;20389;-88
2023/09/26 00:57:34;;;;;;;3.88;2.80;;;11.50;1.00;;;;;;5015887;28;20433;-89
2023/09/26 01:00:03;;;;;;;3.30;2.80;;;10.50;1.00;;;;;;5009245;28;20391;-89
2023/09/26 01:02:30;;;;;;;3.30;2.80;;;11.40;1.00;;;;;;4992533;28;20395;-89
2023/09/26 01:04:55;;;;;;;3.05;2.85;;;12.70;1.00;;;;;;4992111;28;20481;-89
2023/09/26 01:07:22;;;;;;;4.90;3.10;;;11.40;1.00;;;;;;4991933;28;20553;-88
2023/09/26 01:09:48;;;;;;;2.80;2.60;;;11.40;1.00;;;;;;4991830;28;20743;-88
2023/09/26 01:12:16;;;;;;;2.90;2.70;;;11.20;1.00;;;;;;4996050;28;20922;-90
2023/09/26 01:14:41;;;;;;;3.03;2.80;;;11.40;1.00;;;;;;4995260;28;20402;-89
2023/09/26 01:17:09;;;;;;;2.60;2.40;;;12.60;1.00;;;;;;4992108;28;21297;-89
2023/09/26 01:19:34;;;;;;;3.90;2.85;;;11.40;1.00;;;;;;4991035;28;20470;-89
2023/09/26 01:22:00;;;;;;;3.10;2.90;;;11.10;1.00;;;;;;4991402;28;20457;-90
2023/09/26 01:24:26;;;;;;;3.10;2.80;;;10.10;1.00;;;;;;4991141;28;20818;-89
2023/09/26 01:26:52;;;;;;;3.17;2.88;;;11.00;1.00;;;;;;4992511;28;20394;-89
2023/09/26 01:29:17;;;;;;;3.13;2.42;;;10.90;1.00;;;;;;4991379;28;20485;-89
2023/09/26 01:31:43;;;;;;;3.57;3.00;;;11.70;1.00;;;;;;4991365;28;20401;-89
2023/09/26 01:34:08;;;;;;;3.10;2.53;;;9.90;1.00;;;;;;4991417;28;20828;-89
2023/09/26 01:36:34;;;;;;;4.10;3.20;;;12.70;1.00;;;;;;4991293;28;20920;-89
2023/09/26 01:39:00;;;;;;;3.40;2.80;;;10.90;1.00;;;;;;4991969;28;20417;-89
2023/09/26 01:41:28;;;;;;;3.30;3.00;;;10.90;1.00;;;;;;4990865;28;20395;-88
2023/09/26 01:43:53;;;;;;;3.20;2.85;;;11.10;1.00;;;;;;4991035;28;20879;-89
2023/09/26 01:46:20;;;;;;;2.97;2.78;;;12.30;1.00;;;;;;4991517;28;20398;-89
2023/09/26 01:48:46;;;;;;;3.95;3.03;;;10.10;1.00;;;;;;4990584;28;20895;-89
2023/09/26 01:51:12;;;;;;;3.60;2.72;;;11.90;1.00;;;;;;4991203;28;20496;-90
2023/09/26 01:53:38;;;;;;;3.00;2.80;;;11.00;1.00;;;;;;4991440;28;20460;-89
2023/09/26 01:56:03;;;;;;;3.10;2.80;;;10.50;1.00;;;;;;4990676;28;21903;-89
2023/09/26 01:58:29;;;;;;;3.10;2.80;;;11.10;1.00;;;;;;4990878;28;20530;-89
2023/09/26 02:00:54;;;;;;;3.20;2.90;;;10.50;1.00;;;;;;4990889;28;20386;-89
2023/09/26 02:03:21;;;;;;;3.20;3.00;;;11.50;1.00;;;;;;4991085;28;20387;-89
2023/09/26 02:05:47;;;;;;;3.05;2.83;;;11.60;1.00;;;;;;4991660;28;20834;-87
2023/09/26 02:08:15;;;;;;;3.07;2.77;;;10.90;1.00;;;;;;4991186;28;20406;-89
2023/09/26 02:10:41;;;;;;;3.88;2.90;;;11.20;1.00;;;;;;4990851;28;20398;-89
2023/09/26 02:13:06;;;;;;;2.80;2.53;;;10.50;1.00;;;;;;4991187;28;20426;-89
2023/09/26 02:15:32;;;;;;;2.80;2.60;;;11.00;1.00;;;;;;4990829;28;20430;-88
2023/09/26 02:17:57;;;;;;;3.10;2.90;;;10.80;1.00;;;;;;4991977;28;20421;-89
2023/09/26 02:20:23;;;;;;;3.28;2.70;;;10.60;1.00;;;;;;4990464;28;20417;-89
2023/09/26 02:22:50;;;;;;;3.13;2.83;;;10.90;1.00;;;;;;4990944;28;20805;-89
2023/09/26 02:25:20;;;;;;;2.90;2.70;;;10.90;1.00;;;;;;4991205;28;20909;-89
2023/09/26 02:27:46;;;;;;;2.60;2.40;;;10.90;1.00;;;;;;4991244;28;20545;-89
2023/09/26 02:30:17;;;;;;;6.82;3.70;;;11.00;1.00;;;;;;4990334;28;20936;-89
2023/09/26 02:32:43;;;;;;;3.65;2.50;;;11.10;1.00;;;;;;4990070;28;20406;-88
2023/09/26 02:35:11;;;;;;;4.28;2.80;;;10.20;1.00;;;;;;4992214;28;20402;-89
2023/09/26 02:37:38;;;;;;;4.80;3.05;;;11.00;1.00;;;;;;4990533;28;20414;-89
2023/09/26 02:40:07;;;;;;;3.07;2.87;;;10.80;1.00;;;;;;4990614;28;20964;-89
2023/09/26 02:42:33;;;;;;;3.20;2.90;;;11.00;1.00;;;;;;4990257;28;20482;-89
2023/09/26 02:44:59;;;;;;;2.78;2.58;;;9.90;1.00;;;;;;4993776;28;20418;-89
2023/09/26 02:47:25;;;;;;;3.10;2.80;;;10.80;1.00;;;;;;4994404;28;20421;-89
2023/09/26 02:49:51;;;;;;;2.88;2.60;;;9.80;1.00;;;;;;4994353;28;20822;-89
2023/09/26 02:52:16;;;;;;;3.20;2.70;;;11.10;1.00;;;;;;4993984;28;20402;-89
2023/09/26 02:54:42;;;;;;;3.40;2.80;;;11.00;1.00;;;;;;4994210;28;20400;-89
2023/09/26 02:57:07;;;;;;;4.00;2.70;;;10.80;1.00;;;;;;4994389;28;20440;-89
2023/09/26 02:59:33;;;;;;;3.23;2.60;;;10.00;1.00;;;;;;4993931;28;20383;-89
2023/09/26 03:01:58;;;;;;;3.10;2.80;;;10.70;1.00;;;;;;4994259;28;20387;-90
2023/09/26 03:04:24;;;;;;;3.30;3.00;;;10.70;1.00;;;;;;4995423;28;20457;-89
2023/09/26 03:06:49;;;;;;;3.10;2.90;;;12.30;1.00;;;;;;4994211;28;20938;-88
2023/09/26 03:09:15;;;;;;;4.40;2.90;;;11.60;1.00;;;;;;4994183;28;20477;-89
2023/09/26 03:11:43;;;;;;;4.70;2.60;;;10.30;1.00;;;;;;4994109;28;20398;-89
2023/09/26 03:14:09;;;;;;;3.40;3.00;;;10.60;1.00;;;;;;4994215;28;20902;-89
2023/09/26 03:16:34;;;;;;;3.13;2.83;;;12.30;1.00;;;;;;4994113;28;20445;-89
2023/09/26 03:19:00;;;;;;;2.80;2.60;;;10.70;1.00;;;;;;4993613;28;20429;-89
2023/09/26 03:21:25;;;;;;;2.70;2.50;;;10.50;1.00;;;;;;4994093;28;20395;-89
2023/09/26 03:23:51;;;;;;;3.10;2.80;;;10.40;1.00;;;;;;4994131;28;20398;-89
2023/09/26 03:26:17;;;;;;;2.80;2.60;;;9.70;1.00;;;;;;4993888;28;20390;-89
2023/09/26 03:28:42;;;;;;;3.30;3.00;;;10.70;1.00;;;;;;4995003;28;20426;-89
2023/09/26 03:31:11;;;;;;;3.40;3.10;;;10.60;1.00;;;;;;4993738;28;20410;-88
2023/09/26 03:33:37;;;;;;;2.80;2.60;;;10.00;1.00;;;;;;4993998;28;20399;-89
2023/09/26 03:36:04;;;;;;;2.80;2.60;;;10.30;1.00;;;;;;4997189;28;20421;-89
2023/09/26 03:38:30;;;;;;;2.95;2.65;;;11.00;1.00;;;;;;4995076;28;20898;-89
2023/09/26 03:41:00;;;;;;;2.53;2.33;;;9.50;1.00;;;;;;4995136;28;20430;-89
2023/09/26 03:43:26;;;;;;;2.60;2.40;;;10.80;1.00;;;;;;4995306;28;20525;-90
2023/09/26 03:46:06;;;;;;;3.10;2.40;;;10.40;1.00;;;;;;4993799;28;20398;-89
2023/09/26 03:48:32;;;;;;;3.80;2.60;;;10.90;1.00;;;;;;4988016;28;20406;-89
2023/09/26 03:51:12;;;;;;;2.85;2.50;;;11.10;1.00;;;;;;4992965;28;20403;-89
2023/09/26 03:53:39;;;;;;;3.00;2.70;;;10.10;1.00;;;;;;4993431;28;20402;-90
2023/09/26 03:56:05;;;;;;;3.45;2.80;;;10.40;1.00;;;;;;4992566;28;20399;-89
2023/09/26 03:58:32;;;;;;;3.53;2.70;;;10.50;1.00;;;;;;4992975;28;20422;-89
2023/09/26 04:01:12;;;;;;;3.28;2.97;;;10.50;1.00;;;;;;4992965;28;20401;-88
2023/09/26 04:03:39;;;;;;;2.50;2.30;;;11.00;1.00;;;;;;4993024;28;20481;-89
2023/09/26 04:06:05;;;;;;;3.70;2.78;;;10.10;1.00;;;;;;4992559;28;20390;-89
2023/09/26 04:08:30;;;;;;;2.85;2.65;;;9.70;1.00;;;;;;4992629;28;20414;-89
2023/09/26 04:10:56;;;;;;;3.35;3.05;;;8.90;1.00;;;;;;4994236;28;20391;-87
2023/09/26 04:13:21;;;;;;;3.27;2.97;;;10.20;1.00;;;;;;4994320;28;20399;-89
2023/09/26 04:15:47;;;;;;;3.20;2.90;;;10.60;1.00;;;;;;4994440;28;20402;-89
2023/09/26 04:20:44;;;;;;;2.90;2.70;;;10.60;1.00;;;;;;4997313;28;20426;-85
2023/09/26 04:23:10;;;;;;;2.90;2.70;;;10.60;1.00;;;;;;4995616;28;20444;-86
2023/09/26 04:25:36;;;;;;;3.50;3.20;;;10.60;1.00;;;;;;4994518;28;20425;-83
2023/09/26 04:28:03;;;;;;;3.17;2.80;;;10.50;1.00;;;;;;4993882;28;20744;-83
2023/09/26 04:30:30;;;;;;;3.15;2.80;;;10.70;1.00;;;;;;4978975;28;20919;-83
2023/09/26 04:32:55;;;;;;;3.15;2.88;;;10.60;1.00;;;;;;4975138;28;20392;-84
2023/09/26 04:35:21;;;;;;;3.22;2.90;;;10.50;1.00;;;;;;4973688;28;20542;-86
2023/09/26 04:37:46;;;;;;;3.10;2.80;;;10.70;1.00;;;;;;4974470;28;20427;-84
2023/09/26 04:40:12;;;;;;;3.53;2.73;;;10.20;1.00;;;;;;4976332;28;20421;-83
2023/09/26 04:42:40;;;;;;;4.20;3.30;;;10.70;1.00;;;;;;4974158;28;20398;-84
2023/09/26 04:45:07;;;;;;;3.17;2.90;;;10.70;1.00;;;;;;4992891;28;20466;-85
2023/09/26 04:47:32;;;;;;;3.67;2.97;;;10.80;1.00;;;;;;4994751;28;20413;-83
2023/09/26 04:49:58;;;;;;;3.30;3.00;;;10.90;1.00;;;;;;4993309;28;20925;-85
2023/09/26 04:52:24;;;;;;;3.17;2.90;;;10.70;1.00;;;;;;4995006;28;20400;-83
2023/09/26 04:54:53;;;;;;;3.25;2.85;;;10.70;1.00;;;;;;4986294;28;20482;-83
2023/09/26 04:57:18;;;;;;;4.80;3.38;;;10.70;1.00;;;;;;4985935;28;20393;-83
2023/09/26 04:59:44;;;;;;;3.40;3.10;;;10.80;1.00;;;;;;4978508;28;20406;-84
2023/09/26 05:02:10;;;;;;;3.10;2.90;;;10.80;1.00;;;;;;4984788;28;20383;-84
2023/09/26 05:04:35;;;;;;;4.25;3.80;;;10.50;1.00;;;;;;4987567;28;20405;-84
2023/09/26 05:07:01;;;;;;;4.67;3.60;;;10.50;1.00;;;;;;4984700;28;20382;-83
2023/09/26 05:09:26;;;;;;;5.67;4.00;;;10.60;1.00;;;;;;4984892;28;20911;-85
2023/09/26 05:11:52;;;;;;;4.03;3.33;;;10.60;1.00;;;;;;4986595;28;20410;-83
2023/09/26 05:14:17;;;;;;;4.00;3.10;;;10.50;1.00;;;;;;4992113;28;20406;-84
2023/09/26 05:16:43;;;;;;;4.80;4.03;;;11.80;1.00;;;;;;4987702;28;20481;-84
2023/09/26 05:19:08;;;;;;;3.80;3.00;;;10.10;1.00;;;;;;4985595;28;20506;-83
2023/09/26 05:21:43;;;;;;;3.40;3.10;;;10.70;1.00;;;;;;4987727;28;20408;-84
2023/09/26 05:24:08;;;;;;;3.70;3.40;;;10.70;1.00;;;;;;4980685;28;20433;-84
2023/09/26 05:26:34;;;;;;;3.10;2.90;;;10.60;1.00;;;;;;4984817;28;20431;-84
2023/09/26 05:28:59;;;;;;;3.20;2.90;;;10.50;1.00;;;;;;4979124;28;20499;-84
2023/09/26 05:31:30;;;;;;;3.67;3.33;;;10.30;1.00;;;;;;4977909;28;20762;-83
2023/09/26 05:33:56;;;;;;;3.67;3.38;;;10.50;1.00;;;;;;4982988;28;20891;-83
2023/09/26 05:36:22;;;;;;;3.65;3.33;;;10.20;1.00;;;;;;4988695;28;20402;-84
2023/09/26 05:38:47;;;;;;;3.30;3.00;;;10.50;1.00;;;;;;4981826;28;20856;-81
2023/09/26 05:41:13;;;;;;;3.63;3.33;;;10.40;1.00;;;;;;4985870;28;20421;-84
2023/09/26 05:43:38;;;;;;;3.95;3.38;;;10.50;1.00;;;;;;4982857;28;20936;-83
2023/09/26 05:46:04;;;;;;;3.43;3.00;;;10.50;1.00;;;;;;4985057;28;20945;-84
2023/09/26 05:48:30;;;;;;;3.60;3.30;;;10.40;1.00;;;;;;4989994;28;20776;-88
2023/09/26 05:50:59;;;;;;;3.30;3.00;;;9.70;1.00;;;;;;4974475;28;20503;-87
2023/09/26 05:53:25;;;;;;;3.35;3.05;;;10.50;1.00;;;;;;4974180;28;20813;-88
2023/09/26 05:55:52;;;;;;;4.20;3.20;;;10.20;1.00;;;;;;4990879;28;20391;-88
2023/09/26 05:58:19;;;;;;;3.40;3.10;;;9.70;1.00;;;;;;4996260;28;20426;-88
2023/09/26 06:00:46;;;;;;;3.50;3.20;;;10.40;1.00;;;;;;5009514;28;20390;-88
2023/09/26 06:03:12;;;;;;;3.90;3.15;;;10.50;1.00;;;;;;4982019;28;20896;-88
2023/09/26 06:05:38;;;;;;;4.20;3.20;;;10.30;1.00;;;;;;4980364;28;20397;-88
2023/09/26 06:08:04;;;;;;;5.28;3.15;;;10.70;1.00;;;;;;4973528;28;20403;-87
2023/09/26 06:10:29;;;;;;;3.38;2.90;;;10.90;1.00;;;;;;4972136;28;20407;-88
2023/09/26 06:12:55;;;;;;;4.50;2.97;;;10.80;1.00;;;;;;4990000;28;20392;-87
2023/09/26 06:15:22;;;;;;;4.90;3.33;;;10.70;1.00;;;;;;4972686;28;20483;-88
2023/09/26 06:17:47;;;;;;;3.28;2.90;;;10.30;1.00;;;;;;4990685;28;20457;-88
2023/09/26 06:20:13;;;;;;;4.03;3.30;;;11.00;1.00;;;;;;4996408;28;20414;-88
2023/09/26 06:22:38;;;;;;;2.92;2.70;;;10.90;1.00;;;;;;4987828;28;20400;-88
2023/09/26 06:25:04;;;;;;;4.20;3.25;;;10.80;1.00;;;;;;5000274;28;20452;-88
2023/09/26 06:27:37;;;;;;;3.95;3.28;;;11.00;1.00;;;;;;4990090;28;20470;-88
2023/09/26 06:30:04;;;;;;;4.00;3.10;;;10.00;1.00;;;;;;4980133;28;20498;-88
2023/09/26 06:32:30;;;;;;;3.85;2.63;;;11.10;1.00;;;;;;4991538;28;20436;-88
2023/09/26 06:34:59;;;;;;;3.42;3.00;;;11.10;1.00;;;;;;4995635;28;20421;-88
2023/09/26 06:37:25;;;;;;;3.80;3.20;;;11.40;1.00;;;;;;4994648;28;21000;-88
2023/09/26 06:39:50;;;;;;;4.00;3.00;;;11.00;1.00;;;;;;4993844;28;20398;-88
2023/09/26 06:42:16;;;;;;;3.77;3.33;;;10.70;1.00;;;;;;4993004;28;20533;-88
2023/09/26 06:44:41;;;;;;;3.20;2.90;;;11.40;1.00;;;;;;4994920;28;20382;-88
2023/09/26 06:47:07;;;;;;;3.30;3.00;;;11.00;1.00;;;;;;4995103;28;20393;-88
2023/09/26 06:49:34;;;;;;;3.70;3.03;;;11.50;1.00;;;;;;4994074;28;20429;-88
2023/09/26 06:52:00;;;;;;;5.93;2.97;;;11.50;1.00;;;;;;4992438;28;20414;-89
2023/09/26 06:54:25;;;;;;;3.28;2.92;;;11.60;1.00;;;;;;4995005;28;20770;-89
2023/09/26 06:56:51;;;;;;;3.00;2.80;;;11.40;1.00;;;;;;4994566;28;20394;-88
2023/09/26 06:59:17;;;;;;;3.60;3.23;;;11.30;1.00;;;;;;5011936;28;20449;-89
2023/09/26 07:01:43;;;;;;;3.20;2.90;;;11.70;1.00;;;;;;4995487;28;20406;-89
2023/09/26 07:04:14;;;;;;;3.17;2.80;;;11.90;1.00;;;;;;4999608;28;20429;-89
2023/09/26 07:06:40;;;;;;;3.10;2.90;;;11.40;1.00;;;;;;5014997;28;20412;-89
2023/09/26 07:09:07;;;;;;;2.92;2.72;;;12.50;1.00;;;;;;5003033;28;20407;-89
2023/09/26 07:14:10;;;;;;;3.03;2.72;;;12.20;1.00;;;;;;4736914;26;20429;-89
2023/09/26 07:16:36;;;;;;;3.60;3.08;;;13.70;1.00;;;;;;5000633;28;20732;-89
2023/09/26 07:19:04;;;;;;;3.17;2.67;;;11.80;1.00;;;;;;4999821;28;20464;-87
2023/09/26 07:21:29;;;;;;;3.30;3.00;;;12.40;1.00;;;;;;4993242;28;20805;-89
2023/09/26 07:23:55;;;;;;;2.80;2.60;;;11.80;1.00;;;;;;4990801;28;20400;-88
2023/09/26 07:26:21;;;;;;;2.67;2.20;;;12.40;1.00;;;;;;4991656;28;20724;-89
2023/09/26 07:28:47;;;;;;;5.40;3.30;;;14.40;1.00;;;;;;5000622;28;20413;-89
2023/09/26 07:31:15;;;;;;;3.03;2.60;;;12.20;1.00;;;;;;4991439;28;20399;-89
2023/09/26 07:33:42;;;;;;;3.13;2.30;;;14.30;1.00;;;;;;4995132;28;20391;-90
2023/09/26 07:36:09;;;;;;;2.60;2.40;;;14.20;1.00;;;;;;4980081;28;20403;-89
2023/09/26 07:38:34;;;;;;;3.92;2.53;;;14.50;1.00;;;;;;4978377;28;20415;-89
2023/09/26 07:41:03;;;;;;;2.78;2.50;;;11.60;1.00;;;;;;4993793;28;20390;-90
2023/09/26 07:43:30;;;;;;;3.25;2.50;;;15.20;1.00;;;;;;4993962;28;20394;-90
2023/09/26 07:45:59;;;;;;;2.93;2.27;;;12.40;1.00;;;;;;4993942;28;20395;-90
2023/09/26 07:48:25;;;;;;;10.95;3.20;;;12.80;1.00;;;;;;4994359;28;20434;-90
2023/09/26 07:50:50;;;;;;;3.20;2.90;;;11.70;1.00;;;;;;4994373;28;20395;-90
2023/09/26 07:53:16;;;;;;;3.30;2.90;;;15.20;1.00;;;;;;4995267;28;20408;-89
2023/09/26 07:55:42;;;;;;;2.80;2.50;;;15.70;1.00;;;;;;4976751;28;20404;-89
2023/09/26 07:58:20;;;;;;;4.53;3.40;;;16.60;1.00;;;;;;4993540;28;20412;-89
2023/09/26 08:00:45;;;;;;;3.07;2.70;;;13.80;1.00;;;;;;4991934;28;20440;-89
2023/09/26 08:03:11;;;;;;;6.03;3.83;;;16.10;1.00;;;;;;4994759;28;20395;-89
2023/09/26 08:05:36;;;;;;;3.70;3.40;;;15.80;1.00;;;;;;4987150;28;20460;-89
2023/09/26 08:08:04;;;;;;;4.28;3.20;;;16.20;1.00;;;;;;4992349;28;20406;-90
2023/09/26 08:10:31;;;;;;;3.72;3.15;;;14.50;1.00;;;;;;4996451;28;20391;-88
2023/09/26 08:12:56;;;;;;;3.15;2.65;;;14.70;1.00;;;;;;4996402;28;20445;-89
2023/09/26 08:15:22;;;;;;;3.85;3.40;;;13.70;1.00;;;;;;5013953;28;20382;-89
2023/09/26 08:17:47;;;;;;;4.45;3.10;;;14.60;1.00;;;;;;5013574;28;20435;-90
2023/09/26 08:20:14;;;;;;;3.50;3.00;;;13.70;1.00;;;;;;5016604;28;20408;-89
2023/09/26 08:22:39;;;;;;;3.20;2.85;;;14.90;1.00;;;;;;5027440;28;20457;-89
2023/09/26 08:25:07;;;;;;;4.80;2.83;;;15.50;1.00;;;;;;4992972;28;20408;-88
2023/09/26 08:27:33;;;;;;;3.40;3.10;;;14.90;1.00;;;;;;4989229;28;20432;-90
2023/09/26 08:29:59;;;;;;;3.80;2.80;;;13.20;1.00;;;;;;4992602;28;20989;-90
2023/09/26 08:32:26;;;;;;;3.00;2.70;;;15.20;1.00;;;;;;5001586;28;20410;-90
2023/09/26 08:34:51;;;;;;;4.15;2.50;;;13.00;1.00;;;;;;4998545;28;20496;-89
2023/09/26 08:37:17;;;;;;;3.00;2.60;;;15.40;1.00;;;;;;5003075;28;20838;-90
2023/09/26 08:39:47;;;;;;;2.63;2.43;;;15.20;1.00;;;;;;4989306;28;20499;-90
2023/09/26 08:42:25;;;;;;;5.53;2.97;;;14.60;1.00;;;;;;4997159;28;20403;-90
2023/09/26 08:44:51;;;;;;;4.60;2.70;;;18.20;1.00;;;;;;4985849;28;20396;-90
2023/09/26 08:47:17;;;;;;;3.25;2.28;;;16.90;1.00;;;;;;4994039;28;20481;-89
2023/09/26 08:49:44;;;;;;;4.30;2.80;;;17.00;1.00;;;;;;4996680;28;20386;-91
2023/09/26 08:52:10;;;;;;;2.95;2.60;;;16.60;1.00;;;;;;4997282;28;20470;-90
2023/09/26 08:54:35;;;;;;;2.97;2.78;;;14.90;1.00;;;;;;4982807;28;20491;-90
2023/09/26 08:57:01;;;;;;;3.90;2.70;;;15.80;1.00;;;;;;4977112;28;20768;-90
2023/09/26 08:59:31;;;;;;;3.30;2.78;;;16.60;1.00;;;;;;4977270;28;20935;-89
2023/09/26 09:01:57;;;;;;;4.80;3.40;;;14.90;1.00;;;;;;4975916;28;20424;-90
2023/09/26 09:04:23;;;;;;;4.40;2.87;;;14.60;1.00;;;;;;4976786;28;20393;-89
2023/09/26 09:07:00;;;;;;;5.22;2.90;;;19.70;1.00;;;;;;4976952;28;20392;-90
2023/09/26 09:09:26;;;;;;;4.10;3.30;;;18.80;1.00;;;;;;4979712;28;20468;-89
2023/09/26 09:11:51;;;;;;;3.15;2.70;;;18.10;1.00;;;;;;5016491;28;20403;-90
2023/09/26 09:14:34;;;;;;;5.63;2.90;;;16.20;1.00;;;;;;5015679;28;20438;-91
2023/09/26 09:16:59;;;;;;;3.58;3.20;;;16.60;1.00;;;;;;4996914;28;20790;-91
2023/09/26 09:19:47;;;;;;;3.85;3.10;;;17.00;1.00;;;;;;4996962;28;20410;-90
2023/09/26 09:22:17;;;;;;;4.55;3.30;;;16.70;1.00;;;;;;4979302;28;20443;-90
2023/09/26 09:24:50;;;;;;;4.00;3.25;;;16.70;1.00;;;;;;4993175;28;20398;-90
2023/09/26 09:27:16;;;;;;;4.15;2.92;;;17.30;1.00;;;;;;4982913;28;20398;-89
2023/09/26 09:30:00;;;;;;;3.47;3.17;;;19.00;1.00;;;;;;4986702;28;20430;-90
2023/09/26 09:32:26;;;;;;;4.35;3.58;;;17.00;1.00;;;;;;5007153;28;20398;-90
2023/09/26 09:34:51;;;;;;;4.82;3.20;;;19.10;1.00;;;;;;4978300;28;20509;-90
2023/09/26 09:37:19;;;;;;;5.90;3.38;;;17.30;1.00;;;;;;4987490;28;20422;-90
2023/09/26 09:39:47;;;;;;;4.90;3.20;;;18.80;1.00;;;;;;4993453;28;20386;-89
2023/09/26 09:42:12;;;;;;;3.85;3.40;;;19.60;1.00;;;;;;4987778;28;20482;-91
2023/09/26 09:44:38;;;;;;;4.80;2.90;;;15.50;1.00;;;;;;4976652;28;20429;-90
2023/09/26 09:47:04;;;;;;;4.70;3.30;;;17.40;1.00;;;;;;4980751;28;20392;-90
2023/09/26 09:49:32;;;;;;;3.95;2.92;;;17.90;1.00;;;;;;4990786;28;20466;-91
2023/09/26 09:52:04;;;;;;;3.35;2.70;;;19.70;1.00;;;;;;4997167;28;20398;-91
2023/09/26 09:54:33;;;;;;;3.33;3.03;;;17.70;1.00;;;;;;4995091;28;20400;-91
2023/09/26 09:57:01;;;;;;;5.82;2.92;;;19.80;1.00;;;;;;4987191;28;20395;-90
2023/09/26 09:59:29;;;;;;;5.80;3.20;;;19.90;1.00;;;;;;5001266;28;20414;-90
2023/09/26 10:01:55;;;;;;;5.60;2.57;;;18.20;1.00;;;;;;4980161;28;20396;-90
2023/09/26 10:04:23;;;;;;;3.45;2.90;;;18.00;1.00;;;;;;4978916;28;20399;-90
2023/09/26 10:06:50;;;;;;;3.10;2.60;;;20.80;1.00;;;;;;4978490;28;20447;-91
2023/09/26 10:09:20;;;;;;;3.80;2.60;;;20.30;1.00;;;;;;4979418;28;20443;-89
2023/09/26 10:11:46;;;;;;;3.65;2.50;;;19.40;1.00;;;;;;4981228;28;20407;-90
2023/09/26 10:14:28;;;;;;;2.92;2.72;;;18.50;1.00;;;;;;4987188;28;20414;-90
2023/09/26 10:16:55;;;;;;;3.43;2.60;;;19.90;1.00;;;;;;4978807;28;20392;-91
2023/09/26 10:19:26;;;;;;;3.05;2.70;;;19.00;1.00;;;;;;5003691;23;20471;-89
2023/09/26 10:21:52;;;;;;;3.00;2.53;;;19.50;1.00;;;;;;5014739;28;20435;-87
2023/09/26 10:24:18;;;;;;;3.73;2.40;;;18.80;1.00;;;;;;5026973;28;20389;-88
2023/09/26 10:26:45;;;;;;;3.17;2.50;;;19.00;1.00;;;;;;5027801;28;20419;-88
2023/09/26 10:29:17;;;;;;;2.50;2.20;;;19.60;1.00;;;;;;5019017;28;20430;-88
2023/09/26 10:31:53;;;;;;;3.20;2.30;;;19.70;1.00;;;;;;5009994;28;20366;-90
2023/09/26 10:34:27;;;;;;;2.50;2.30;;;19.10;1.00;;;;;;5012055;28;20379;-89
2023/09/26 10:36:54;;;;;;;2.80;2.20;;;19.20;1.00;;;;;;5027614;28;20503;-88
2023/09/26 10:39:36;;;;;;;2.75;1.95;;;19.80;1.00;;;;;;5009548;28;20445;-87
2023/09/26 10:42:16;;;;;;;3.17;2.10;;;19.20;1.00;;;;;;4995316;28;20409;-89
2023/09/26 10:44:43;;;;;;;2.70;1.85;;;19.50;1.00;;;;;;5010990;28;20404;-88
2023/09/26 10:47:12;;;;;;;2.80;2.00;;;20.00;1.00;;;;;;5014019;28;20463;-89
2023/09/26 10:49:38;;;;;;;3.03;1.83;;;20.30;1.00;;;;;;5010999;28;20389;-89
2023/09/26 10:52:10;;;;;;;3.10;1.80;;;19.60;1.00;;;;;;5012347;28;21095;-89
2023/09/26 10:54:37;;;;;;;2.70;1.90;;;21.20;1.00;;;;;;4998907;28;20485;-88
2023/09/26 10:57:26;;;;;;;3.07;1.80;;;20.80;1.00;;;;;;4994808;28;20402;-89
2023/09/26 10:59:54;;;;;;;2.37;2.00;;;20.20;1.00;;;;;;5014212;28;20452;-88
2023/09/26 11:02:22;;;;;;;1.90;1.80;;;20.70;1.00;;;;;;4995467;28;20391;-89
2023/09/26 11:04:47;;;;;;;2.33;2.13;;;21.60;1.00;;;;;;4996275;28;20438;-88
2023/09/26 11:07:15;;;;;;;2.75;2.08;;;22.90;1.00;;;;;;5000572;28;20798;-89
2023/09/26 11:09:42;;;;;;;3.10;1.77;;;20.30;1.00;;;;;;5017957;28;20384;-89
2023/09/26 11:12:11;;;;;;;2.10;1.90;;;21.60;1.00;;;;;;5002848;28;20479;-88
2023/09/26 11:14:36;;;;;;;2.00;1.42;;;21.40;1.00;;;;;;4998354;28;20466;-89
2023/09/26 11:17:04;;;;;;;3.60;1.93;;;21.80;1.00;;;;;;4996607;28;20420;-89
2023/09/26 11:19:30;;;;;;;2.72;1.60;;;21.80;1.00;;;;;;4997042;28;20418;-89
2023/09/26 11:21:56;;;;;;;2.30;1.70;;;22.70;1.00;;;;;;5012094;28;20397;-89
2023/09/26 11:24:24;;;;;;;3.00;2.50;;;24.50;1.00;;;;;;5015659;28;20447;-90
2023/09/26 11:26:56;;;;;;;2.00;1.80;;;23.00;1.00;;;;;;5013219;28;20935;-90
2023/09/26 11:29:40;;;;;;;2.55;2.00;;;23.50;1.00;;;;;;4996211;28;20815;-90
2023/09/26 11:32:06;;;;;;;2.70;1.90;;;25.00;1.00;;;;;;4998182;28;20890;-90
2023/09/26 11:34:34;;;;;;;3.47;2.20;;;25.20;1.00;;;;;;4998224;28;20401;-89
2023/09/26 11:37:00;;;;;;;1.95;1.75;;;25.60;1.00;;;;;;5010185;28;20392;-90
2023/09/26 11:39:26;;;;;;;2.33;2.00;;;24.10;1.00;;;;;;4997922;28;20417;-90
2023/09/26 11:42:08;;;;;;;3.63;1.80;;;25.00;1.00;;;;;;4996484;28;20810;-91
2023/09/26 11:44:38;;;;;;;1.80;1.55;;;24.60;1.00;;;;;;5010154;28;20401;-90
2023/09/26 11:47:05;;;;;;;2.25;1.90;;;24.60;1.00;;;;;;4994570;28;20434;-90
2023/09/26 11:49:31;;;;;;;2.78;1.88;;;23.70;1.00;;;;;;5006097;28;20846;-90
2023/09/26 11:51:56;;;;;;;1.77;1.60;;;23.60;1.00;;;;;;5031916;28;20434;-90
2023/09/26 11:54:22;;;;;;;2.40;1.80;;;24.90;1.00;;;;;;5013587;28;20389;-90
2023/09/26 11:56:48;;;;;;;2.83;1.90;;;25.50;1.00;;;;;;5014955;28;20401;-90
2023/09/26 11:59:14;;;;;;;2.10;1.75;;;24.40;1.00;;;;;;4996077;28;20417;-89
2023/09/26 12:01:41;;;;;;;2.95;1.60;;;23.80;1.00;;;;;;5014638;28;20384;-90
2023/09/26 12:04:09;;;;;;;2.60;2.10;;;24.00;1.00;;;;;;5014984;28;20480;-89
2023/09/26 12:06:35;;;;;;;1.90;1.70;;;24.50;1.00;;;;;;5012196;28;20395;-90
2023/09/26 12:09:03;;;;;;;2.72;2.10;;;24.60;1.00;;;;;;5004154;28;20402;-90
2023/09/26 12:11:34;;;;;;;2.15;1.90;;;25.40;1.00;;;;;;5000265;28;20421;-89
2023/09/26 12:14:01;;;;;;;2.15;1.95;;;25.00;1.00;;;;;;5000793;28;20398;-89
2023/09/26 12:16:32;;;;;;;2.30;1.77;;;24.40;1.00;;;;;;5015243;28;20395;-90
2023/09/26 12:18:58;;;;;;;1.60;1.50;;;25.40;1.00;;;;;;5011333;28;20401;-89
2023/09/26 12:21:23;;;;;;;2.47;1.97;;;24.80;1.00;;;;;;4995164;28;20410;-91
2023/09/26 12:23:49;;;;;;;3.40;2.30;;;24.10;1.00;;;;;;4996708;28;20394;-89
2023/09/26 12:26:15;;;;;;;2.65;2.17;;;24.60;1.00;;;;;;4995379;28;20433;-89
2023/09/26 12:28:42;;;;;;;2.80;1.80;;;25.60;1.00;;;;;;4995472;28;20830;-87
2023/09/26 12:31:08;;;;;;;1.85;1.65;;;24.10;1.00;;;;;;5012914;28;20484;-88
2023/09/26 12:33:33;;;;;;;2.60;2.30;;;24.20;1.00;;;;;;4995017;28;20419;-89
2023/09/26 12:35:59;;;;;;;2.45;2.10;;;24.70;1.00;;;;;;4996130;28;20399;-87
2023/09/26 12:38:25;;;;;;;4.20;2.20;;;23.90;1.00;;;;;;5006616;28;20418;-90
2023/09/26 12:40:51;;;;;;;3.72;2.20;;;25.20;1.00;;;;;;5016815;28;20509;-89
2023/09/26 12:43:17;;;;;;;3.00;1.70;;;24.70;1.00;;;;;;5008457;28;20398;-90
2023/09/26 12:45:42;;;;;;;2.27;2.07;;;24.10;1.00;;;;;;5013532;28;20400;-88
2023/09/26 12:48:08;;;;;;;2.20;1.88;;;23.90;1.00;;;;;;5028184;28;20392;-90
2023/09/26 12:50:35;;;;;;;2.30;1.90;;;24.60;1.00;;;;;;5035583;28;20441;-88
2023/09/26 12:53:02;;;;;;;3.17;2.30;;;24.20;1.00;;;;;;5037240;28;20393;-91
2023/09/26 12:55:27;;;;;;;2.65;1.95;;;24.10;1.00;;;;;;5020172;28;20421;-91
2023/09/26 12:57:53;;;;;;;2.40;2.20;;;24.00;1.00;;;;;;5018281;28;20405;-90
2023/09/26 13:00:19;;;;;;;3.45;2.20;;;23.90;1.00;;;;;;5012620;28;20397;-87
2023/09/26 13:02:44;;;;;;;2.00;1.60;;;25.20;1.00;;;;;;4994732;28;20426;-92